Telegraph Creek, Canada
Current Conditions -  °F | °C
As of 11:00 PM on Friday 28 Nov 2014 (Local Time) from CYDL Reporting Station
Broken Clouds Broken Clouds  
Wind Chill: -24°   Ceiling: 400
Heat Index: -24°   Visibility: 7mi
Dew Point: -29°   Wind: 0mph
Humidity: 76%   Direction: NA
Pressure: 30.05"   Gusts: NA
Location:  57.9°N, 131.15°W
Report Text: CYDL 290700Z AUTO 00000KT 7SM BKN004 M31/M34 A3005 RMK SLP262
Loading
Personal Weather Stations






























Interactive Weather Map New forecast layout! Learn more

10-Day Weather Forecast

Advertisements
Track Severe Weather on mobile